Time,TemperatureF,DewpointF,PressureIn,WindDirection,WindDirectionDegrees,WindSpeedMPH,WindSpeedGustMPH,Humidity,HourlyPrecipIn,Conditions,Clouds,dailyrainin,SoftwareType,DateUTC
2013-08-14 00:01:00,56.9,51.4,0.00,NNE,27,0.4,1.8,82,0.00,,,0.00,WUHU216CR1000,2013-08-14 07:01:00,
2013-08-14 00:06:00,56.5,51.2,0.00,NE,37,0.1,1.8,82,0.00,,,0.00,WUHU216CR1000,2013-08-14 07:06:00,
2013-08-14 00:11:00,56.5,51.2,0.00,NE,37,0.1,1.0,82,0.00,,,0.00,WUHU216CR1000,2013-08-14 07:11:00,
2013-08-14 00:16:00,55.9,51.0,0.00,East,90,0.5,1.8,84,0.00,,,0.00,WUHU216CR1000,2013-08-14 07:16:00,
2013-08-14 00:21:00,55.9,51.0,0.00,East,90,0.5,1.8,84,0.00,,,0.00,WUHU216CR1000,2013-08-14 07:21:00,
2013-08-14 00:26:00,55.9,51.0,0.00,East,90,0.5,1.8,84,0.00,,,0.00,WUHU216CR1000,2013-08-14 07:26:00,
2013-08-14 00:31:00,55.2,50.7,0.00,ESE,109,0.1,1.8,85,0.00,,,0.00,WUHU216CR1000,2013-08-14 07:31:00,
2013-08-14 00:36:00,55.2,50.7,0.00,ESE,109,0.1,1.4,85,0.00,,,0.00,WUHU216CR1000,2013-08-14 07:36:00,
2013-08-14 00:41:00,55.2,50.7,0.00,ESE,109,0.1,1.4,85,0.00,,,0.00,WUHU216CR1000,2013-08-14 07:41:00,
2013-08-14 00:46:00,55.0,50.7,0.00,ENE,72,0.5,2.1,85,0.00,,,0.00,WUHU216CR1000,2013-08-14 07:46:00,
2013-08-14 00:51:00,55.0,50.7,0.00,ENE,72,0.5,2.1,85,0.00,,,0.00,WUHU216CR1000,2013-08-14 07:51:00,
2013-08-14 00:56:00,55.0,50.7,0.00,ENE,72,0.5,2.1,85,0.00,,,0.00,WUHU216CR1000,2013-08-14 07:56:00,
2013-08-14 01:01:00,55.2,51.3,0.00,ENE,67,0.9,2.1,87,0.00,,,0.00,WUHU216CR1000,2013-08-14 08:01:00,
2013-08-14 01:06:00,55.2,51.3,0.00,ENE,67,0.9,2.1,87,0.00,,,0.00,WUHU216CR1000,2013-08-14 08:06:00,
2013-08-14 01:11:00,55.2,51.3,0.00,ENE,67,0.9,2.1,87,0.00,,,0.00,WUHU216CR1000,2013-08-14 08:11:00,
2013-08-14 01:16:00,54.7,51.2,0.00,NE,50,0.3,2.1,88,0.00,,,0.00,WUHU216CR1000,2013-08-14 08:16:00,
2013-08-14 01:21:00,54.7,51.2,0.00,NE,50,0.3,1.3,88,0.00,,,0.00,WUHU216CR1000,2013-08-14 08:21:00,
2013-08-14 01:26:00,54.7,51.2,0.00,NE,50,0.3,1.3,88,0.00,,,0.00,WUHU216CR1000,2013-08-14 08:26:00,
2013-08-14 01:31:00,54.1,50.4,0.00,NE,51,0.2,1.4,87,0.00,,,0.00,WUHU216CR1000,2013-08-14 08:31:00,
2013-08-14 01:36:00,54.1,50.4,0.00,NE,51,0.2,1.4,87,0.00,,,0.00,WUHU216CR1000,2013-08-14 08:36:00,
2013-08-14 01:41:00,54.1,50.4,0.00,NE,51,0.2,1.4,87,0.00,,,0.00,WUHU216CR1000,2013-08-14 08:41:00,
2013-08-14 01:46:00,53.4,49.8,0.00,NNE,29,0.3,2.2,88,0.00,,,0.00,WUHU216CR1000,2013-08-14 08:46:00,
2013-08-14 01:51:00,53.4,49.8,0.00,NNE,29,0.3,2.2,88,0.00,,,0.00,WUHU216CR1000,2013-08-14 08:51:00,
2013-08-14 01:56:00,53.4,49.8,0.00,NNE,29,0.3,2.2,88,0.00,,,0.00,WUHU216CR1000,2013-08-14 08:56:00,
2013-08-14 02:01:00,53.3,50.2,0.00,NNE,21,0.2,2.2,89,0.00,,,0.00,WUHU216CR1000,2013-08-14 09:01:00,
2013-08-14 02:06:00,53.3,50.2,0.00,NNE,21,0.2,1.3,89,0.00,,,0.00,WUHU216CR1000,2013-08-14 09:06:00,
2013-08-14 02:11:00,53.3,50.2,0.00,NNE,21,0.2,1.3,89,0.00,,,0.00,WUHU216CR1000,2013-08-14 09:11:00,
2013-08-14 02:16:00,53.0,49.2,0.00,NNE,28,0.4,1.5,87,0.00,,,0.00,WUHU216CR1000,2013-08-14 09:16:00,
2013-08-14 02:21:00,53.0,49.2,0.00,NNE,28,0.4,1.5,87,0.00,,,0.00,WUHU216CR1000,2013-08-14 09:21:00,
2013-08-14 02:26:00,53.0,49.2,0.00,NNE,28,0.4,1.5,87,0.00,,,0.00,WUHU216CR1000,2013-08-14 09:26:00,
2013-08-14 02:31:00,52.8,49.4,0.00,North,0,0.0,1.5,88,0.00,,,0.00,WUHU216CR1000,2013-08-14 09:31:00,
2013-08-14 02:36:00,52.8,49.4,0.00,North,0,0.0,0.0,88,0.00,,,0.00,WUHU216CR1000,2013-08-14 09:36:00,
2013-08-14 02:41:00,52.8,49.4,0.00,North,0,0.0,0.0,88,0.00,,,0.00,WUHU216CR1000,2013-08-14 09:41:00,
2013-08-14 02:46:00,52.0,49.1,0.00,WSW,250,0.8,1.9,90,0.00,,,0.00,WUHU216CR1000,2013-08-14 09:46:00,
2013-08-14 02:51:00,52.0,49.1,0.00,WSW,250,0.8,1.9,90,0.00,,,0.00,WUHU216CR1000,2013-08-14 09:51:00,
2013-08-14 02:56:00,52.0,49.1,0.00,WSW,250,0.8,1.9,90,0.00,,,0.00,WUHU216CR1000,2013-08-14 09:56:00,
2013-08-14 03:01:00,51.5,48.3,0.00,North,0,0.0,1.9,89,0.00,,,0.00,WUHU216CR1000,2013-08-14 10:01:00,
2013-08-14 03:06:00,51.5,48.3,0.00,North,0,0.0,0.0,89,0.00,,,0.00,WUHU216CR1000,2013-08-14 10:06:00,
2013-08-14 03:11:00,51.5,48.3,0.00,North,0,0.0,0.0,89,0.00,,,0.00,WUHU216CR1000,2013-08-14 10:11:00,
2013-08-14 03:16:00,51.6,48.7,0.00,North,1,0.4,1.8,90,0.00,,,0.00,WUHU216CR1000,2013-08-14 10:16:00,
2013-08-14 03:21:00,51.6,48.7,0.00,North,1,0.4,1.8,90,0.00,,,0.00,WUHU216CR1000,2013-08-14 10:21:00,
2013-08-14 03:26:00,51.6,48.7,0.00,North,1,0.4,1.8,90,0.00,,,0.00,WUHU216CR1000,2013-08-14 10:26:00,
2013-08-14 03:31:00,50.7,48.0,0.00,North,351,0.2,1.8,90,0.00,,,0.00,WUHU216CR1000,2013-08-14 10:31:00,
2013-08-14 03:36:00,50.7,48.0,0.00,North,351,0.2,1.5,90,0.00,,,0.00,WUHU216CR1000,2013-08-14 10:36:00,
2013-08-14 03:41:00,50.7,48.0,0.00,North,351,0.2,1.5,90,0.00,,,0.00,WUHU216CR1000,2013-08-14 10:41:00,
2013-08-14 03:46:00,50.2,47.9,0.00,North,351,0.6,1.9,92,0.00,,,0.00,WUHU216CR1000,2013-08-14 10:46:00,
2013-08-14 03:51:00,50.2,47.9,0.00,North,351,0.6,1.9,92,0.00,,,0.00,WUHU216CR1000,2013-08-14 10:51:00,
2013-08-14 03:56:00,50.2,47.9,0.00,North,351,0.6,1.9,92,0.00,,,0.00,WUHU216CR1000,2013-08-14 10:56:00,
2013-08-14 04:01:00,50.2,47.9,0.00,NNW,332,0.5,2.7,92,0.00,,,0.00,WUHU216CR1000,2013-08-14 11:01:00,
2013-08-14 04:06:00,50.2,47.9,0.00,NNW,332,0.5,2.7,92,0.00,,,0.00,WUHU216CR1000,2013-08-14 11:06:00,
2013-08-14 04:11:00,50.2,47.9,0.00,NNW,332,0.5,2.7,92,0.00,,,0.00,WUHU216CR1000,2013-08-14 11:11:00,
2013-08-14 04:16:00,50.0,48.1,0.00,NW,321,0.5,2.7,93,0.00,,,0.00,WUHU216CR1000,2013-08-14 11:16:00,
2013-08-14 04:21:00,50.0,48.1,0.00,NW,321,0.5,1.6,93,0.00,,,0.00,WUHU216CR1000,2013-08-14 11:21:00,
2013-08-14 04:26:00,50.0,48.1,0.00,NW,321,0.5,1.6,93,0.00,,,0.00,WUHU216CR1000,2013-08-14 11:26:00,
2013-08-14 04:31:00,50.0,48.5,0.00,North,353,0.5,1.6,94,0.00,,,0.00,WUHU216CR1000,2013-08-14 11:31:00,
2013-08-14 04:36:00,50.0,48.5,0.00,North,353,0.5,1.3,94,0.00,,,0.00,WUHU216CR1000,2013-08-14 11:36:00,
2013-08-14 04:41:00,50.0,48.5,0.00,North,353,0.5,1.3,94,0.00,,,0.00,WUHU216CR1000,2013-08-14 11:41:00,
2013-08-14 04:46:00,49.9,47.8,0.00,NE,37,0.4,1.8,92,0.00,,,0.00,WUHU216CR1000,2013-08-14 11:46:00,
2013-08-14 04:51:00,49.9,47.8,0.00,NE,37,0.4,1.8,92,0.00,,,0.00,WUHU216CR1000,2013-08-14 11:51:00,
2013-08-14 04:56:00,49.9,47.8,0.00,NE,37,0.4,1.8,92,0.00,,,0.00,WUHU216CR1000,2013-08-14 11:56:00,
2013-08-14 05:01:00,50.0,47.5,0.00,North,0,0.0,1.8,91,0.00,,,0.00,WUHU216CR1000,2013-08-14 12:01:00,
2013-08-14 05:06:00,50.0,47.5,0.00,North,0,0.0,0.0,91,0.00,,,0.00,WUHU216CR1000,2013-08-14 12:06:00,
2013-08-14 05:11:00,50.0,47.5,0.00,North,0,0.0,0.0,91,0.00,,,0.00,WUHU216CR1000,2013-08-14 12:11:00,
2013-08-14 05:16:00,49.5,47.2,0.00,NNW,327,0.3,1.1,92,0.00,,,0.00,WUHU216CR1000,2013-08-14 12:16:00,
2013-08-14 05:21:00,49.5,47.2,0.00,NNW,327,0.3,1.1,92,0.00,,,0.00,WUHU216CR1000,2013-08-14 12:21:00,
2013-08-14 05:26:00,49.5,47.2,0.00,NNW,327,0.3,1.1,92,0.00,,,0.00,WUHU216CR1000,2013-08-14 12:26:00,
2013-08-14 05:31:00,49.0,47.4,0.00,NNW,333,0.7,1.4,94,0.00,,,0.00,WUHU216CR1000,2013-08-14 12:31:00,
2013-08-14 05:36:00,49.0,47.4,0.00,NNW,333,0.7,1.4,94,0.00,,,0.00,WUHU216CR1000,2013-08-14 12:36:00,
2013-08-14 05:41:00,49.0,47.4,0.00,NNW,333,0.7,1.4,94,0.00,,,0.00,WUHU216CR1000,2013-08-14 12:41:00,
2013-08-14 05:46:00,48.9,47.6,0.00,NW,317,1.1,2.0,95,0.00,,,0.00,WUHU216CR1000,2013-08-14 12:46:00,
2013-08-14 05:51:00,48.9,47.6,0.00,NW,317,1.1,2.0,95,0.00,,,0.00,WUHU216CR1000,2013-08-14 12:51:00,
2013-08-14 05:56:00,48.9,47.6,0.00,NW,317,1.1,2.0,95,0.00,,,0.00,WUHU216CR1000,2013-08-14 12:56:00,
2013-08-14 06:01:00,48.9,47.8,0.00,NNW,327,0.8,2.0,96,0.00,,,0.00,WUHU216CR1000,2013-08-14 13:01:00,
2013-08-14 06:06:00,48.9,47.8,0.00,NNW,327,0.8,1.8,96,0.00,,,0.00,WUHU216CR1000,2013-08-14 13:06:00,
2013-08-14 06:11:00,48.9,47.8,0.00,NNW,327,0.8,1.8,96,0.00,,,0.00,WUHU216CR1000,2013-08-14 13:11:00,
2013-08-14 06:16:00,48.5,47.0,0.00,North,352,0.0,1.8,95,0.00,,,0.00,WUHU216CR1000,2013-08-14 13:16:00,
2013-08-14 06:21:00,48.5,47.0,0.00,North,352,0.0,0.7,95,0.00,,,0.00,WUHU216CR1000,2013-08-14 13:21:00,
2013-08-14 06:26:00,48.5,47.0,0.00,North,352,0.0,0.7,95,0.00,,,0.00,WUHU216CR1000,2013-08-14 13:26:00,
2013-08-14 06:31:00,48.2,46.7,0.00,NW,317,0.1,1.0,94,0.00,,,0.00,WUHU216CR1000,2013-08-14 13:31:00,
2013-08-14 06:36:00,48.2,46.7,0.00,NW,317,0.1,1.0,94,0.00,,,0.00,WUHU216CR1000,2013-08-14 13:36:00,
2013-08-14 06:41:00,48.2,46.7,0.00,NW,317,0.1,1.0,94,0.00,,,0.00,WUHU216CR1000,2013-08-14 13:41:00,
2013-08-14 06:46:00,48.4,47.2,0.00,WSW,245,0.6,1.4,96,0.00,,,0.00,WUHU216CR1000,2013-08-14 13:46:00,
2013-08-14 06:51:00,48.4,47.2,0.00,WSW,245,0.6,1.4,96,0.00,,,0.00,WUHU216CR1000,2013-08-14 13:51:00,
2013-08-14 06:56:00,48.4,47.2,0.00,WSW,245,0.6,1.4,96,0.00,,,0.00,WUHU216CR1000,2013-08-14 13:56:00,
2013-08-14 07:01:00,49.1,47.9,0.00,SW,227,0.8,1.4,95,0.00,,,0.00,WUHU216CR1000,2013-08-14 14:01:00,
2013-08-14 07:06:00,49.1,47.9,0.00,SW,227,0.8,1.4,95,0.00,,,0.00,WUHU216CR1000,2013-08-14 14:06:00,
2013-08-14 07:11:00,49.1,47.9,0.00,SW,227,0.8,1.4,95,0.00,,,0.00,WUHU216CR1000,2013-08-14 14:11:00,
2013-08-14 07:16:00,51.2,49.3,0.00,SSW,208,0.2,1.4,93,0.00,,,0.00,WUHU216CR1000,2013-08-14 14:16:00,
2013-08-14 07:21:00,51.2,49.3,0.00,SSW,208,0.2,1.2,93,0.00,,,0.00,WUHU216CR1000,2013-08-14 14:21:00,
2013-08-14 07:26:00,51.2,49.3,0.00,SSW,208,0.2,1.2,93,0.00,,,0.00,WUHU216CR1000,2013-08-14 14:26:00,
2013-08-14 07:31:00,53.7,50.5,0.00,WSW,243,0.1,1.2,89,0.00,,,0.00,WUHU216CR1000,2013-08-14 14:31:00,
2013-08-14 07:36:00,53.7,50.5,0.00,WSW,243,0.1,0.7,89,0.00,,,0.00,WUHU216CR1000,2013-08-14 14:36:00,
2013-08-14 07:41:00,53.7,50.5,0.00,WSW,243,0.1,0.7,89,0.00,,,0.00,WUHU216CR1000,2013-08-14 14:41:00,
2013-08-14 07:46:00,56.2,51.1,0.00,West,276,0.1,0.9,83,0.00,,,0.00,WUHU216CR1000,2013-08-14 14:46:00,
2013-08-14 07:51:00,56.2,51.1,0.00,West,276,0.1,0.9,83,0.00,,,0.00,WUHU216CR1000,2013-08-14 14:51:00,
2013-08-14 07:56:00,56.2,51.1,0.00,West,276,0.1,0.9,83,0.00,,,0.00,WUHU216CR1000,2013-08-14 14:56:00,
2013-08-14 08:01:00,56.2,51.1,0.00,West,276,0.1,0.9,83,0.00,,,0.00,WUHU216CR1000,2013-08-14 15:01:00,
2013-08-14 08:06:00,58.2,50.8,0.00,NE,36,0.4,2.0,76,0.00,,,0.00,WUHU216CR1000,2013-08-14 15:06:00,
2013-08-14 08:11:00,58.2,50.8,0.00,NE,36,0.4,2.0,76,0.00,,,0.00,WUHU216CR1000,2013-08-14 15:11:00,
2013-08-14 08:16:00,58.5,50.8,0.00,ENE,58,1.1,3.1,76,0.00,,,0.00,WUHU216CR1000,2013-08-14 15:16:00,
2013-08-14 08:21:00,58.5,50.8,0.00,ENE,58,1.1,3.1,76,0.00,,,0.00,WUHU216CR1000,2013-08-14 15:21:00,
2013-08-14 08:26:00,58.5,50.8,0.00,ENE,58,1.1,3.1,76,0.00,,,0.00,WUHU216CR1000,2013-08-14 15:26:00,
2013-08-14 08:31:00,59.4,51.0,0.00,ENE,74,0.8,3.1,74,0.00,,,0.00,WUHU216CR1000,2013-08-14 15:31:00,
2013-08-14 08:36:00,59.4,51.0,0.00,ENE,74,0.8,2.9,74,0.00,,,0.00,WUHU216CR1000,2013-08-14 15:36:00,
2013-08-14 08:41:00,59.4,51.0,0.00,ENE,74,0.8,2.9,74,0.00,,,0.00,WUHU216CR1000,2013-08-14 15:41:00,
2013-08-14 08:46:00,61.0,51.5,0.00,ESE,105,0.7,2.9,71,0.00,,,0.00,WUHU216CR1000,2013-08-14 15:46:00,
2013-08-14 08:51:00,61.0,51.5,0.00,ESE,105,0.7,2.4,71,0.00,,,0.00,WUHU216CR1000,2013-08-14 15:51:00,
2013-08-14 08:56:00,61.0,51.5,0.00,ESE,105,0.7,2.4,71,0.00,,,0.00,WUHU216CR1000,2013-08-14 15:56:00,
2013-08-14 09:01:00,62.0,51.6,0.00,South,183,1.8,4.1,69,0.00,,,0.00,WUHU216CR1000,2013-08-14 16:01:00,
2013-08-14 09:06:00,62.0,51.6,0.00,South,183,1.8,4.1,69,0.00,,,0.00,WUHU216CR1000,2013-08-14 16:06:00,
2013-08-14 09:11:00,62.0,51.6,0.00,South,183,1.8,4.1,69,0.00,,,0.00,WUHU216CR1000,2013-08-14 16:11:00,
2013-08-14 09:16:00,63.0,52.0,0.00,South,180,1.0,4.1,67,0.00,,,0.00,WUHU216CR1000,2013-08-14 16:16:00,
2013-08-14 09:21:00,63.0,52.0,0.00,South,180,1.0,3.5,67,0.00,,,0.00,WUHU216CR1000,2013-08-14 16:21:00,
2013-08-14 09:26:00,63.0,52.0,0.00,South,180,1.0,3.5,67,0.00,,,0.00,WUHU216CR1000,2013-08-14 16:26:00,
2013-08-14 09:31:00,64.9,52.5,0.00,South,181,1.6,4.8,64,0.00,,,0.00,WUHU216CR1000,2013-08-14 16:31:00,
2013-08-14 09:36:00,64.9,52.5,0.00,South,181,1.6,4.8,64,0.00,,,0.00,WUHU216CR1000,2013-08-14 16:36:00,
2013-08-14 09:41:00,64.9,52.5,0.00,South,181,1.6,4.8,64,0.00,,,0.00,WUHU216CR1000,2013-08-14 16:41:00,
2013-08-14 09:46:00,65.7,52.5,0.00,East,93,2.0,5.4,62,0.00,,,0.00,WUHU216CR1000,2013-08-14 16:46:00,
2013-08-14 09:52:00,65.7,52.5,0.00,East,93,2.0,5.4,62,0.00,,,0.00,WUHU216CR1000,2013-08-14 16:52:00,
2013-08-14 09:57:00,65.7,52.5,0.00,East,93,2.0,5.4,62,0.00,,,0.00,WUHU216CR1000,2013-08-14 16:57:00,
2013-08-14 10:02:00,67.3,52.1,0.00,ESE,119,1.5,5.4,58,0.00,,,0.00,WUHU216CR1000,2013-08-14 17:02:00,
2013-08-14 10:07:00,67.3,52.1,0.00,ESE,119,1.5,4.8,58,0.00,,,0.00,WUHU216CR1000,2013-08-14 17:07:00,
2013-08-14 10:12:00,67.3,52.1,0.00,ESE,119,1.5,4.8,58,0.00,,,0.00,WUHU216CR1000,2013-08-14 17:12:00,
2013-08-14 10:17:00,69.2,52.3,0.00,SE,143,1.6,5.3,55,0.00,,,0.00,WUHU216CR1000,2013-08-14 17:17:00,
2013-08-14 10:22:00,69.2,52.3,0.00,SE,143,1.6,5.3,55,0.00,,,0.00,WUHU216CR1000,2013-08-14 17:22:00,
2013-08-14 10:26:00,69.2,52.3,0.00,SE,143,1.6,5.3,55,0.00,,,0.00,WUHU216CR1000,2013-08-14 17:26:00,
2013-08-14 10:27:00,69.2,52.3,0.00,SE,143,1.6,5.3,55,0.00,,,0.00,WUHU216CR1000,2013-08-14 17:27:00,
2013-08-14 10:33:00,69.2,52.3,0.00,SE,143,1.6,5.3,55,0.00,,,0.00,WUHU216CR1000,2013-08-14 17:33:00,
2013-08-14 12:16:00,80.3,55.2,0.00,ESE,108,3.0,7.9,42,0.00,,,0.00,WUHU216CR1000,2013-08-14 19:16:00,
2013-08-14 12:21:00,80.3,55.2,0.00,ESE,108,3.0,7.9,42,0.00,,,0.00,WUHU216CR1000,2013-08-14 19:21:00,
2013-08-14 12:26:00,80.3,55.2,0.00,ESE,108,3.0,7.9,42,0.00,,,0.00,WUHU216CR1000,2013-08-14 19:26:00,
2013-08-14 12:31:00,81.5,55.5,0.00,East,100,3.8,10.5,41,0.00,,,0.00,WUHU216CR1000,2013-08-14 19:31:00,
2013-08-14 12:36:00,81.5,55.5,0.00,East,100,3.8,10.5,41,0.00,,,0.00,WUHU216CR1000,2013-08-14 19:36:00,
2013-08-14 12:41:00,81.5,55.5,0.00,East,100,3.8,10.5,41,0.00,,,0.00,WUHU216CR1000,2013-08-14 19:41:00,
2013-08-14 12:46:00,82.6,55.5,0.00,South,170,3.3,10.5,40,0.00,,,0.00,WUHU216CR1000,2013-08-14 19:46:00,
2013-08-14 12:51:00,82.6,55.5,0.00,South,170,3.3,7.9,40,0.00,,,0.00,WUHU216CR1000,2013-08-14 19:51:00,
2013-08-14 12:56:00,82.6,55.5,0.00,South,170,3.3,7.9,40,0.00,,,0.00,WUHU216CR1000,2013-08-14 19:56:00,
2013-08-14 13:01:00,84.1,55.5,0.00,SE,138,2.9,8.0,38,0.00,,,0.00,WUHU216CR1000,2013-08-14 20:01:00,
2013-08-14 13:06:00,84.1,55.5,0.00,SE,138,2.9,8.0,38,0.00,,,0.00,WUHU216CR1000,2013-08-14 20:06:00,
2013-08-14 13:11:00,84.1,55.5,0.00,SE,138,2.9,8.0,38,0.00,,,0.00,WUHU216CR1000,2013-08-14 20:11:00,
2013-08-14 13:16:00,84.6,55.4,0.00,ESE,120,3.3,8.0,37,0.00,,,0.00,WUHU216CR1000,2013-08-14 20:16:00,
2013-08-14 13:21:00,84.6,55.4,0.00,ESE,120,3.3,8.0,37,0.00,,,0.00,WUHU216CR1000,2013-08-14 20:21:00,
2013-08-14 13:27:00,84.6,55.4,0.00,ESE,120,3.3,7.9,37,0.00,,,0.00,WUHU216CR1000,2013-08-14 20:27:00,
2013-08-14 13:32:00,86.3,55.3,0.00,South,177,3.0,8.2,35,0.00,,,0.00,WUHU216CR1000,2013-08-14 20:32:00,
2013-08-14 13:38:00,86.3,55.3,0.00,South,177,3.0,8.2,35,0.00,,,0.00,WUHU216CR1000,2013-08-14 20:38:00,
2013-08-14 13:43:00,86.3,55.3,0.00,South,177,3.0,8.2,35,0.00,,,0.00,WUHU216CR1000,2013-08-14 20:43:00,
2013-08-14 13:48:00,87.1,55.9,0.00,SSE,157,3.9,8.3,35,0.00,,,0.00,WUHU216CR1000,2013-08-14 20:48:00,
2013-08-14 13:53:00,87.1,55.9,0.00,SSE,157,3.9,8.3,35,0.00,,,0.00,WUHU216CR1000,2013-08-14 20:53:00,
2013-08-14 13:58:00,87.1,55.9,0.00,SSE,157,3.9,8.3,35,0.00,,,0.00,WUHU216CR1000,2013-08-14 20:58:00,
2013-08-14 14:03:00,87.6,56.6,0.00,SE,131,4.5,12.7,35,0.00,,,0.00,WUHU216CR1000,2013-08-14 21:03:00,
2013-08-14 14:08:00,87.6,56.6,0.00,SE,131,4.5,12.7,35,0.00,,,0.00,WUHU216CR1000,2013-08-14 21:08:00,
2013-08-14 14:13:00,87.6,56.6,0.00,SE,131,4.5,12.7,35,0.00,,,0.00,WUHU216CR1000,2013-08-14 21:13:00,
2013-08-14 14:18:00,88.5,56.6,0.00,SSE,147,4.1,12.7,34,0.00,,,0.00,WUHU216CR1000,2013-08-14 21:18:00,
2013-08-14 14:23:00,88.5,56.6,0.00,SSE,147,4.1,8.6,34,0.00,,,0.00,WUHU216CR1000,2013-08-14 21:23:00,
2013-08-14 14:28:00,88.5,56.6,0.00,SSE,147,4.1,8.6,34,0.00,,,0.00,WUHU216CR1000,2013-08-14 21:28:00,
2013-08-14 14:33:00,89.4,56.4,0.00,SSE,158,3.9,10.3,33,0.00,,,0.00,WUHU216CR1000,2013-08-14 21:33:00,
2013-08-14 14:38:00,89.4,56.4,0.00,SSE,158,3.9,10.3,33,0.00,,,0.00,WUHU216CR1000,2013-08-14 21:38:00,
2013-08-14 14:43:00,89.4,56.4,0.00,SSE,158,3.9,10.3,33,0.00,,,0.00,WUHU216CR1000,2013-08-14 21:43:00,
2013-08-14 14:48:00,90.0,55.7,0.00,South,176,4.2,10.5,31,0.00,,,0.00,WUHU216CR1000,2013-08-14 21:48:00,
2013-08-14 14:53:00,90.0,55.7,0.00,South,176,4.2,10.5,31,0.00,,,0.00,WUHU216CR1000,2013-08-14 21:53:00,
2013-08-14 14:58:00,90.0,55.7,0.00,South,176,4.2,10.5,31,0.00,,,0.00,WUHU216CR1000,2013-08-14 21:58:00,
2013-08-14 15:03:00,91.3,54.8,0.00,SSE,163,3.6,10.5,29,0.00,,,0.00,WUHU216CR1000,2013-08-14 22:03:00,
2013-08-14 15:08:00,91.3,54.8,0.00,SSE,163,3.6,8.0,29,0.00,,,0.00,WUHU216CR1000,2013-08-14 22:08:00,
2013-08-14 15:13:00,91.3,54.8,0.00,SSE,163,3.6,8.0,29,0.00,,,0.00,WUHU216CR1000,2013-08-14 22:13:00,
2013-08-14 15:18:00,91.8,52.3,0.00,SSE,159,3.6,8.3,26,0.00,,,0.00,WUHU216CR1000,2013-08-14 22:18:00,
2013-08-14 15:23:00,91.8,52.3,0.00,SSE,159,3.6,8.3,26,0.00,,,0.00,WUHU216CR1000,2013-08-14 22:23:00,
2013-08-14 15:29:00,91.8,52.3,0.00,SSE,159,3.6,8.3,26,0.00,,,0.00,WUHU216CR1000,2013-08-14 22:29:00,
2013-08-14 15:34:00,92.3,51.6,0.00,SE,134,3.7,11.3,25,0.00,,,0.00,WUHU216CR1000,2013-08-14 22:34:00,
2013-08-14 15:39:00,92.3,51.6,0.00,SE,134,3.7,11.3,25,0.00,,,0.00,WUHU216CR1000,2013-08-14 22:39:00,
2013-08-14 15:44:00,92.3,51.6,0.00,SE,134,3.7,11.3,25,0.00,,,0.00,WUHU216CR1000,2013-08-14 22:44:00,
2013-08-14 15:49:00,92.4,50.8,0.00,SSE,149,4.2,11.3,24,0.00,,,0.00,WUHU216CR1000,2013-08-14 22:49:00,
2013-08-14 15:54:00,92.4,50.8,0.00,SSE,149,4.2,8.1,24,0.00,,,0.00,WUHU216CR1000,2013-08-14 22:54:00,
2013-08-14 15:59:00,92.4,50.8,0.00,SSE,149,4.2,8.1,24,0.00,,,0.00,WUHU216CR1000,2013-08-14 22:59:00,
2013-08-14 16:04:00,93.5,51.8,0.00,South,175,4.1,9.8,24,0.00,,,0.00,WUHU216CR1000,2013-08-14 23:04:00,
2013-08-14 16:09:00,93.5,51.8,0.00,South,175,4.1,9.8,24,0.00,,,0.00,WUHU216CR1000,2013-08-14 23:09:00,
2013-08-14 16:14:00,93.5,51.8,0.00,South,175,4.1,9.8,24,0.00,,,0.00,WUHU216CR1000,2013-08-14 23:14:00,
2013-08-14 16:19:00,93.1,52.6,0.00,SE,132,4.2,9.8,25,0.00,,,0.00,WUHU216CR1000,2013-08-14 23:19:00,
2013-08-14 16:24:00,93.1,52.6,0.00,SE,132,4.2,9.6,25,0.00,,,0.00,WUHU216CR1000,2013-08-14 23:24:00,
2013-08-14 16:29:00,93.1,52.6,0.00,SE,132,4.2,9.6,25,0.00,,,0.00,WUHU216CR1000,2013-08-14 23:29:00,
2013-08-14 16:34:00,92.8,53.4,0.00,SE,126,4.3,9.6,26,0.00,,,0.00,WUHU216CR1000,2013-08-14 23:34:00,
2013-08-14 16:39:00,92.8,53.4,0.00,SE,126,4.3,9.5,26,0.00,,,0.00,WUHU216CR1000,2013-08-14 23:39:00,
2013-08-14 16:44:00,92.8,53.4,0.00,SE,126,4.3,9.5,26,0.00,,,0.00,WUHU216CR1000,2013-08-14 23:44:00,
2013-08-14 16:49:00,92.4,54.1,0.00,SE,144,3.9,9.5,28,0.00,,,0.00,WUHU216CR1000,2013-08-14 23:49:00,
2013-08-14 16:54:00,92.4,54.1,0.00,SE,144,3.9,9.5,28,0.00,,,0.00,WUHU216CR1000,2013-08-14 23:54:00,
2013-08-14 16:59:00,92.4,54.1,0.00,SE,144,3.9,9.5,28,0.00,,,0.00,WUHU216CR1000,2013-08-14 23:59:00,
2013-08-14 17:04:00,92.3,54.4,0.00,SE,144,3.0,9.5,28,0.00,,,0.00,WUHU216CR1000,2013-08-15 00:04:00,
2013-08-14 17:09:00,92.3,54.4,0.00,SE,144,3.0,8.7,28,0.00,,,0.00,WUHU216CR1000,2013-08-15 00:09:00,
2013-08-14 17:14:00,92.3,54.4,0.00,SE,144,3.0,8.7,28,0.00,,,0.00,WUHU216CR1000,2013-08-15 00:14:00,
2013-08-14 17:19:00,92.6,54.6,0.00,South,182,4.0,9.1,28,0.00,,,0.00,WUHU216CR1000,2013-08-15 00:19:00,
2013-08-14 17:24:00,92.6,54.6,0.00,South,182,4.0,9.1,28,0.00,,,0.00,WUHU216CR1000,2013-08-15 00:24:00,
2013-08-14 17:29:00,92.6,54.6,0.00,South,182,4.0,9.1,28,0.00,,,0.00,WUHU216CR1000,2013-08-15 00:29:00,
2013-08-14 17:34:00,91.8,55.3,0.00,South,174,3.4,9.1,29,0.00,,,0.00,WUHU216CR1000,2013-08-15 00:34:00,
2013-08-14 17:39:00,91.8,55.3,0.00,South,174,3.4,7.8,29,0.00,,,0.00,WUHU216CR1000,2013-08-15 00:39:00,
2013-08-14 17:44:00,91.8,55.3,0.00,South,174,3.4,7.8,29,0.00,,,0.00,WUHU216CR1000,2013-08-15 00:44:00,
2013-08-14 17:49:00,91.1,55.6,0.00,SE,143,4.5,10.7,30,0.00,,,0.00,WUHU216CR1000,2013-08-15 00:49:00,
2013-08-14 17:54:00,91.1,55.6,0.00,SE,143,4.5,10.7,30,0.00,,,0.00,WUHU216CR1000,2013-08-15 00:54:00,
2013-08-14 17:59:00,91.1,55.6,0.00,SE,143,4.5,10.7,30,0.00,,,0.00,WUHU216CR1000,2013-08-15 00:59:00,
2013-08-14 18:04:00,90.9,56.9,0.00,SSW,196,2.8,10.7,32,0.00,,,0.00,WUHU216CR1000,2013-08-15 01:04:00,
2013-08-14 18:09:00,90.9,56.9,0.00,SSW,196,2.8,7.5,32,0.00,,,0.00,WUHU216CR1000,2013-08-15 01:09:00,
2013-08-14 18:14:00,90.9,56.9,0.00,SSW,196,2.8,7.5,32,0.00,,,0.00,WUHU216CR1000,2013-08-15 01:14:00,
2013-08-14 18:19:00,87.0,59.5,0.00,ENE,68,4.2,8.7,40,0.00,,,0.00,WUHU216CR1000,2013-08-15 01:19:00,
2013-08-14 18:24:00,87.0,59.5,0.00,ENE,68,4.2,8.7,40,0.00,,,0.00,WUHU216CR1000,2013-08-15 01:24:00,
2013-08-14 18:29:00,87.0,59.5,0.00,ENE,68,4.2,8.7,40,0.00,,,0.00,WUHU216CR1000,2013-08-15 01:29:00,
2013-08-14 18:34:00,87.0,59.5,0.00,ENE,68,4.2,8.7,40,0.00,,,0.00,WUHU216CR1000,2013-08-15 01:34:00,
2013-08-14 18:39:00,86.2,59.4,0.00,East,95,2.8,8.7,40,0.00,,,0.00,WUHU216CR1000,2013-08-15 01:39:00,
2013-08-14 18:44:00,86.2,59.4,0.00,East,95,2.8,6.0,40,0.00,,,0.00,WUHU216CR1000,2013-08-15 01:44:00,
2013-08-14 18:49:00,85.3,59.1,0.00,ESE,102,2.7,6.7,41,0.00,,,0.00,WUHU216CR1000,2013-08-15 01:49:00,
2013-08-14 18:54:00,85.3,59.1,0.00,ESE,102,2.7,6.7,41,0.00,,,0.00,WUHU216CR1000,2013-08-15 01:54:00,
2013-08-14 18:59:00,85.3,59.1,0.00,ESE,102,2.7,6.7,41,0.00,,,0.00,WUHU216CR1000,2013-08-15 01:59:00,
2013-08-14 19:04:00,84.1,58.8,0.00,East,92,2.1,6.7,42,0.00,,,0.00,WUHU216CR1000,2013-08-15 02:04:00,
2013-08-14 19:09:00,84.1,58.8,0.00,East,92,2.1,4.9,42,0.00,,,0.00,WUHU216CR1000,2013-08-15 02:09:00,
2013-08-14 19:14:00,84.1,58.8,0.00,East,92,2.1,4.9,42,0.00,,,0.00,WUHU216CR1000,2013-08-15 02:14:00,
2013-08-14 19:19:00,82.7,59.0,0.00,East,80,2.9,6.2,45,0.00,,,0.00,WUHU216CR1000,2013-08-15 02:19:00,
2013-08-14 19:24:00,82.7,59.0,0.00,East,80,2.9,6.2,45,0.00,,,0.00,WUHU216CR1000,2013-08-15 02:24:00,
2013-08-14 19:29:00,82.7,59.0,0.00,East,80,2.9,6.2,45,0.00,,,0.00,WUHU216CR1000,2013-08-15 02:29:00,
2013-08-14 19:34:00,80.5,59.2,0.00,ENE,68,3.6,6.2,48,0.00,,,0.00,WUHU216CR1000,2013-08-15 02:34:00,
2013-08-14 19:39:00,80.5,59.2,0.00,ENE,68,3.6,6.2,48,0.00,,,0.00,WUHU216CR1000,2013-08-15 02:39:00,
2013-08-14 19:44:00,80.5,59.2,0.00,ENE,68,3.6,6.2,48,0.00,,,0.00,WUHU216CR1000,2013-08-15 02:44:00,
2013-08-14 19:49:00,78.1,59.1,0.00,ENE,74,3.1,6.2,52,0.00,,,0.00,WUHU216CR1000,2013-08-15 02:49:00,
2013-08-14 19:54:00,78.1,59.1,0.00,ENE,74,3.1,6.1,52,0.00,,,0.00,WUHU216CR1000,2013-08-15 02:54:00,
2013-08-14 19:59:00,78.1,59.1,0.00,ENE,74,3.1,6.1,52,0.00,,,0.00,WUHU216CR1000,2013-08-15 02:59:00,
2013-08-14 20:04:00,76.2,59.0,0.00,ENE,72,3.2,6.2,55,0.00,,,0.00,WUHU216CR1000,2013-08-15 03:04:00,
2013-08-14 20:09:00,76.2,59.0,0.00,ENE,72,3.2,6.2,55,0.00,,,0.00,WUHU216CR1000,2013-08-15 03:09:00,
2013-08-14 20:14:00,76.2,59.0,0.00,ENE,72,3.2,6.2,55,0.00,,,0.00,WUHU216CR1000,2013-08-15 03:14:00,
2013-08-14 20:19:00,74.7,58.8,0.00,ENE,76,2.8,6.2,58,0.00,,,0.00,WUHU216CR1000,2013-08-15 03:19:00,
2013-08-14 20:24:00,74.7,58.8,0.00,ENE,76,2.8,5.6,58,0.00,,,0.00,WUHU216CR1000,2013-08-15 03:24:00,
2013-08-14 20:29:00,74.7,58.8,0.00,ENE,76,2.8,5.6,58,0.00,,,0.00,WUHU216CR1000,2013-08-15 03:29:00,
2013-08-14 20:34:00,73.3,58.7,0.00,East,85,1.8,5.6,60,0.00,,,0.00,WUHU216CR1000,2013-08-15 03:34:00,
2013-08-14 20:39:00,73.3,58.7,0.00,East,85,1.8,4.7,60,0.00,,,0.00,WUHU216CR1000,2013-08-15 03:39:00,
2013-08-14 20:44:00,73.3,58.7,0.00,East,85,1.8,4.7,60,0.00,,,0.00,WUHU216CR1000,2013-08-15 03:44:00,
2013-08-14 20:49:00,71.8,58.6,0.00,ESE,114,2.5,5.8,63,0.00,,,0.00,WUHU216CR1000,2013-08-15 03:49:00,
2013-08-14 20:54:00,71.8,58.6,0.00,ESE,114,2.5,5.8,63,0.00,,,0.00,WUHU216CR1000,2013-08-15 03:54:00,
2013-08-14 20:59:00,71.8,58.6,0.00,ESE,114,2.5,5.8,63,0.00,,,0.00,WUHU216CR1000,2013-08-15 03:59:00,
2013-08-14 21:01:00,71.8,58.6,0.00,ESE,114,2.5,5.8,63,0.00,,,0.00,WUHU216CR1000,2013-08-15 04:01:00,
2013-08-14 21:06:00,70.3,58.6,0.00,ESE,105,2.3,5.0,66,0.00,,,0.00,WUHU216CR1000,2013-08-15 04:06:00,
2013-08-14 21:11:00,70.3,58.6,0.00,ESE,105,2.3,5.0,66,0.00,,,0.00,WUHU216CR1000,2013-08-15 04:11:00,
2013-08-14 21:16:00,69.0,58.4,0.00,East,101,2.9,6.2,69,0.00,,,0.00,WUHU216CR1000,2013-08-15 04:16:00,
2013-08-14 21:21:00,69.0,58.4,0.00,East,101,2.9,6.2,69,0.00,,,0.00,WUHU216CR1000,2013-08-15 04:21:00,
2013-08-14 21:26:00,69.0,58.4,0.00,East,101,2.9,6.2,69,0.00,,,0.00,WUHU216CR1000,2013-08-15 04:26:00,
2013-08-14 21:31:00,68.1,58.3,0.00,ESE,112,3.2,6.2,71,0.00,,,0.00,WUHU216CR1000,2013-08-15 04:31:00,
2013-08-14 21:36:00,68.1,58.3,0.00,ESE,112,3.2,6.1,71,0.00,,,0.00,WUHU216CR1000,2013-08-15 04:36:00,
2013-08-14 21:41:00,68.1,58.3,0.00,ESE,112,3.2,6.1,71,0.00,,,0.00,WUHU216CR1000,2013-08-15 04:41:00,
2013-08-14 21:46:00,67.3,58.3,0.00,ESE,114,3.3,6.2,73,0.00,,,0.00,WUHU216CR1000,2013-08-15 04:46:00,
2013-08-14 21:51:00,67.3,58.3,0.00,ESE,114,3.3,6.2,73,0.00,,,0.00,WUHU216CR1000,2013-08-15 04:51:00,
2013-08-14 21:56:00,67.3,58.3,0.00,ESE,114,3.3,6.2,73,0.00,,,0.00,WUHU216CR1000,2013-08-15 04:56:00,
2013-08-14 22:01:00,66.7,58.3,0.00,ESE,113,2.6,6.2,74,0.00,,,0.00,WUHU216CR1000,2013-08-15 05:01:00,
2013-08-14 22:06:00,66.7,58.3,0.00,ESE,113,2.6,4.8,74,0.00,,,0.00,WUHU216CR1000,2013-08-15 05:06:00,
2013-08-14 22:11:00,66.7,58.3,0.00,ESE,113,2.6,4.8,74,0.00,,,0.00,WUHU216CR1000,2013-08-15 05:11:00,
2013-08-14 22:16:00,66.0,58.2,0.00,ESE,112,2.2,4.8,76,0.00,,,0.00,WUHU216CR1000,2013-08-15 05:16:00,
2013-08-14 22:21:00,66.0,58.2,0.00,ESE,112,2.2,4.4,76,0.00,,,0.00,WUHU216CR1000,2013-08-15 05:21:00,
2013-08-14 22:26:00,66.0,58.2,0.00,ESE,112,2.2,4.4,76,0.00,,,0.00,WUHU216CR1000,2013-08-15 05:26:00,
2013-08-14 22:31:00,65.3,58.2,0.00,SE,125,0.7,4.4,78,0.00,,,0.00,WUHU216CR1000,2013-08-15 05:31:00,
2013-08-14 22:36:00,65.3,58.2,0.00,SE,125,0.7,4.1,78,0.00,,,0.00,WUHU216CR1000,2013-08-15 05:36:00,
2013-08-14 22:41:00,65.3,58.2,0.00,SE,125,0.7,4.1,78,0.00,,,0.00,WUHU216CR1000,2013-08-15 05:41:00,
2013-08-14 22:46:00,64.5,57.8,0.00,East,83,0.5,4.1,79,0.00,,,0.00,WUHU216CR1000,2013-08-15 05:46:00,
2013-08-14 22:51:00,64.5,57.8,0.00,East,83,0.5,1.4,79,0.00,,,0.00,WUHU216CR1000,2013-08-15 05:51:00,
2013-08-14 22:56:00,64.5,57.8,0.00,East,83,0.5,1.4,79,0.00,,,0.00,WUHU216CR1000,2013-08-15 05:56:00,
2013-08-14 23:01:00,63.7,57.6,0.00,ENE,76,1.1,3.2,81,0.00,,,0.00,WUHU216CR1000,2013-08-15 06:01:00,
2013-08-14 23:06:00,63.7,57.6,0.00,ENE,76,1.1,3.2,81,0.00,,,0.00,WUHU216CR1000,2013-08-15 06:06:00,
2013-08-14 23:11:00,63.7,57.6,0.00,ENE,76,1.1,3.2,81,0.00,,,0.00,WUHU216CR1000,2013-08-15 06:11:00,
2013-08-14 23:16:00,63.1,57.6,0.00,East,85,1.7,3.2,82,0.00,,,0.00,WUHU216CR1000,2013-08-15 06:16:00,
2013-08-14 23:21:00,63.1,57.6,0.00,East,85,1.7,3.0,82,0.00,,,0.00,WUHU216CR1000,2013-08-15 06:21:00,
2013-08-14 23:26:00,63.1,57.6,0.00,East,85,1.7,3.0,82,0.00,,,0.00,WUHU216CR1000,2013-08-15 06:26:00,
2013-08-14 23:31:00,62.5,57.5,0.00,East,91,1.1,3.0,84,0.00,,,0.00,WUHU216CR1000,2013-08-15 06:31:00,
2013-08-14 23:36:00,62.5,57.5,0.00,East,91,1.1,2.6,84,0.00,,,0.00,WUHU216CR1000,2013-08-15 06:36:00,
2013-08-14 23:41:00,62.5,57.5,0.00,East,91,1.1,2.6,84,0.00,,,0.00,WUHU216CR1000,2013-08-15 06:41:00,
2013-08-14 23:46:00,62.4,57.7,0.00,East,84,0.9,2.6,85,0.00,,,0.00,WUHU216CR1000,2013-08-15 06:46:00,
2013-08-14 23:51:00,62.4,57.7,0.00,East,84,0.9,2.5,85,0.00,,,0.00,WUHU216CR1000,2013-08-15 06:51:00,
2013-08-14 23:56:00,62.4,57.7,0.00,East,84,0.9,2.5,85,0.00,,,0.00,WUHU216CR1000,2013-08-15 06:56:00,